Time;durP1;ratioP1;P1;durP2;ratioP2;P2;SDS_P1;SDS_P2;PMS_P1;PMS_P2;Temp;Humidity;BMP_temperature;BMP_pressure;BME280_temperature;BME280_humidity;BME280_pressure;Samples;Min_cycle;Max_cycle;Signal;HPM_P1;HPM_P2
2023/10/17 00:02:06;;;;;;;5.03;2.10;;;9.80;99.90;;;;;;5016789;28;20036;-89
2023/10/17 00:04:38;;;;;;;5.28;2.47;;;9.70;99.90;;;;;;5032150;28;20457;-89
2023/10/17 00:07:04;;;;;;;4.60;2.22;;;9.80;99.90;;;;;;5005410;28;20084;-89
2023/10/17 00:09:36;;;;;;;3.92;2.55;;;9.70;99.90;;;;;;4996867;28;20030;-89
2023/10/17 00:12:09;;;;;;;4.28;2.55;;;9.80;99.90;;;;;;5008367;28;20044;-89
2023/10/17 00:14:44;;;;;;;3.65;2.30;;;9.70;99.90;;;;;;5034222;28;20500;-89
2023/10/17 00:17:13;;;;;;;4.97;2.63;;;9.80;99.90;;;;;;5034148;28;20021;-89
2023/10/17 00:19:41;;;;;;;3.85;2.25;;;9.80;99.90;;;;;;5015023;28;20034;-89
2023/10/17 00:22:07;;;;;;;5.50;2.33;;;9.80;99.90;;;;;;5013442;28;20022;-89
2023/10/17 00:24:34;;;;;;;4.15;2.40;;;9.80;99.90;;;;;;5038546;28;20063;-90
2023/10/17 00:27:02;;;;;;;5.25;2.58;;;9.80;99.90;;;;;;5016517;28;20038;-90
2023/10/17 00:29:28;;;;;;;4.35;2.65;;;9.80;99.90;;;;;;5033980;28;20100;-91
2023/10/17 00:31:55;;;;;;;4.53;2.35;;;9.80;99.90;;;;;;5033107;28;20033;-89
2023/10/17 00:34:25;;;;;;;5.30;2.45;;;9.80;99.90;;;;;;5016815;28;20105;-89
2023/10/17 00:39:36;;;;;;;5.00;2.60;;;9.80;99.90;;;;;;5037951;28;20343;-90
2023/10/17 00:44:41;;;;;;;3.78;2.38;;;9.80;99.90;;;;;;5037209;28;20140;-90
2023/10/17 00:47:08;;;;;;;3.13;2.13;;;9.80;99.90;;;;;;5036912;28;20029;-89
2023/10/17 00:49:42;;;;;;;3.63;2.42;;;9.80;99.90;;;;;;5001030;28;20393;-89
2023/10/17 00:52:37;;;;;;;7.07;2.67;;;9.90;99.90;;;;;;5029284;28;20026;-89
2023/10/17 00:55:04;;;;;;;4.13;2.53;;;9.90;99.90;;;;;;4994085;28;20148;-90
2023/10/17 00:57:31;;;;;;;5.22;2.40;;;9.80;99.90;;;;;;5043401;28;20081;-89
2023/10/17 01:00:48;;;;;;;4.53;2.60;;;9.80;99.90;;;;;;5060467;28;20037;-90
2023/10/17 01:02:45;;;;;;;4.32;2.47;;;9.80;99.90;;;;;;5046912;28;20013;-90
2023/10/17 01:05:13;;;;;;;4.30;2.72;;;9.80;99.90;;;;;;5052621;28;20044;-91
2023/10/17 01:07:41;;;;;;;5.13;2.67;;;9.80;99.90;;;;;;5057351;28;20029;-89
2023/10/17 01:10:13;;;;;;;4.88;2.65;;;9.80;99.90;;;;;;5046315;28;20135;-89
2023/10/17 01:13:04;;;;;;;5.35;2.50;;;9.80;99.90;;;;;;5036995;28;20080;-89
2023/10/17 01:15:38;;;;;;;6.13;2.50;;;9.80;99.90;;;;;;5036163;28;20076;-89
2023/10/17 01:18:04;;;;;;;4.68;2.25;;;9.80;99.90;;;;;;5037617;28;20104;-89
2023/10/17 01:20:34;;;;;;;5.55;2.58;;;9.80;99.90;;;;;;5035909;28;20068;-89
2023/10/17 01:23:04;;;;;;;3.83;2.42;;;9.80;99.90;;;;;;5036598;28;20115;-90
2023/10/17 01:25:30;;;;;;;4.15;2.38;;;9.80;99.90;;;;;;5035855;28;20037;-90
2023/10/17 01:27:57;;;;;;;7.50;2.85;;;9.80;99.90;;;;;;5036932;28;20021;-89
2023/10/17 01:30:29;;;;;;;4.05;2.50;;;9.80;99.90;;;;;;5038149;28;20080;-89
2023/10/17 01:32:58;;;;;;;6.53;2.67;;;9.80;99.90;;;;;;5040404;28;20083;-90
2023/10/17 01:35:24;;;;;;;4.68;3.05;;;9.80;99.90;;;;;;5045324;28;20029;-89
2023/10/17 01:37:55;;;;;;;5.00;2.50;;;9.80;99.90;;;;;;5045619;28;20424;-88
2023/10/17 01:40:26;;;;;;;3.90;2.42;;;9.80;99.90;;;;;;5035849;28;20029;-90
2023/10/17 01:42:52;;;;;;;4.07;2.80;;;9.80;99.90;;;;;;5037263;28;20017;-89
2023/10/17 01:45:22;;;;;;;5.20;2.30;;;9.80;99.90;;;;;;5035797;28;20485;-89
2023/10/17 01:47:48;;;;;;;4.18;2.42;;;9.80;99.90;;;;;;5035630;28;20045;-90
2023/10/17 01:50:13;;;;;;;4.65;2.40;;;9.90;99.90;;;;;;5035796;28;20034;-89
2023/10/17 01:52:42;;;;;;;4.72;2.50;;;9.90;99.90;;;;;;5035795;28;20025;-89
2023/10/17 01:55:12;;;;;;;4.05;2.53;;;9.90;99.90;;;;;;5035417;28;20049;-89
2023/10/17 01:57:43;;;;;;;3.67;2.30;;;9.90;99.90;;;;;;5036634;28;20022;-90
2023/10/17 02:00:27;;;;;;;5.97;2.60;;;9.90;99.90;;;;;;5051816;28;20367;-90
2023/10/17 02:02:54;;;;;;;5.78;2.95;;;9.90;99.90;;;;;;5040133;28;20041;-90
2023/10/17 02:05:22;;;;;;;6.13;3.20;;;9.90;99.90;;;;;;5036775;28;20033;-90
2023/10/17 02:07:48;;;;;;;4.82;2.90;;;9.90;99.90;;;;;;5055303;28;20059;-89
2023/10/17 02:10:17;;;;;;;7.20;3.67;;;10.00;99.90;;;;;;5046896;28;20024;-90
2023/10/17 02:12:44;;;;;;;5.13;2.80;;;10.00;99.90;;;;;;5019349;28;20026;-89
2023/10/17 02:15:19;;;;;;;5.10;3.33;;;10.00;99.90;;;;;;5031163;28;20037;-90
2023/10/17 02:17:50;;;;;;;5.60;3.20;;;9.90;99.90;;;;;;5035594;28;20076;-89
2023/10/17 02:23:01;;;;;;;5.10;3.28;;;9.90;99.90;;;;;;5041176;28;20029;-89
2023/10/17 02:25:34;;;;;;;3.40;2.67;;;9.90;99.90;;;;;;5038502;28;20032;-90
2023/10/17 02:28:04;;;;;;;5.07;3.42;;;9.90;99.90;;;;;;5061277;28;20072;-89
2023/10/17 02:30:29;;;;;;;3.75;2.80;;;9.90;99.90;;;;;;5047230;28;20014;-88
2023/10/17 02:32:55;;;;;;;4.97;3.10;;;9.80;99.90;;;;;;5056615;28;20600;-88
2023/10/17 02:35:32;;;;;;;5.60;3.67;;;9.80;99.90;;;;;;5057341;28;20028;-89
2023/10/17 02:37:58;;;;;;;5.55;2.95;;;9.80;99.90;;;;;;5035682;28;20123;-90
2023/10/17 02:40:25;;;;;;;5.53;3.20;;;9.80;99.90;;;;;;5035154;28;20022;-90
2023/10/17 02:42:51;;;;;;;4.88;2.92;;;9.80;99.90;;;;;;5035143;28;20025;-89
2023/10/17 02:45:24;;;;;;;4.63;3.13;;;9.80;99.90;;;;;;5034484;28;20025;-90
2023/10/17 02:48:11;;;;;;;6.03;2.90;;;9.70;99.90;;;;;;5035824;28;20067;-90
2023/10/17 02:53:06;;;;;;;4.20;2.90;;;9.70;99.90;;;;;;5035838;28;20385;-90
2023/10/17 02:55:31;;;;;;;5.15;2.70;;;9.70;99.90;;;;;;5041879;28;20042;-89
2023/10/17 02:57:57;;;;;;;4.60;3.30;;;9.80;99.90;;;;;;5017826;28;20575;-90
2023/10/17 03:00:33;;;;;;;6.80;3.17;;;9.70;99.90;;;;;;5005990;28;20057;-89
2023/10/17 03:02:59;;;;;;;4.35;2.90;;;9.70;99.90;;;;;;5021443;28;20075;-89
2023/10/17 03:05:28;;;;;;;5.32;2.95;;;9.70;99.90;;;;;;5044039;28;20511;-90
2023/10/17 03:07:53;;;;;;;6.07;3.35;;;9.80;99.90;;;;;;5033256;28;20022;-90
2023/10/17 03:10:37;;;;;;;4.55;3.00;;;9.80;99.90;;;;;;5036911;28;20025;-87
2023/10/17 03:13:37;;;;;;;9.80;3.10;;;9.80;99.90;;;;;;5028254;28;20029;-89
2023/10/17 03:18:51;;;;;;;6.10;3.30;;;9.80;99.90;;;;;;5018839;28;20068;-89
2023/10/17 03:21:20;;;;;;;4.10;3.08;;;9.80;99.90;;;;;;5035179;28;20022;-89
2023/10/17 03:23:52;;;;;;;4.22;3.10;;;9.80;99.90;;;;;;5036071;28;20020;-89
2023/10/17 03:26:19;;;;;;;5.68;3.25;;;9.80;99.90;;;;;;5026524;28;20025;-90
2023/10/17 03:28:49;;;;;;;5.35;3.15;;;9.80;99.90;;;;;;5042048;28;20044;-89
2023/10/17 03:31:20;;;;;;;3.70;2.95;;;9.70;99.90;;;;;;5033989;28;20048;-91
2023/10/17 03:33:52;;;;;;;4.32;3.15;;;9.70;99.90;;;;;;5018127;28;20029;-89
2023/10/17 03:36:40;;;;;;;3.92;3.22;;;9.70;99.90;;;;;;5034455;28;20026;-89
2023/10/17 03:39:21;;;;;;;5.70;3.17;;;9.70;99.90;;;;;;5037710;28;20026;-89
2023/10/17 03:41:56;;;;;;;4.95;3.35;;;9.60;99.90;;;;;;5019591;28;20029;-89
2023/10/17 03:44:39;;;;;;;3.72;3.15;;;9.60;99.90;;;;;;5035677;28;20025;-89
2023/10/17 03:47:04;;;;;;;6.43;3.13;;;9.60;99.90;;;;;;5033912;28;20018;-90
2023/10/17 03:49:37;;;;;;;5.63;3.25;;;9.60;99.90;;;;;;5034377;28;20025;-90
2023/10/17 03:52:10;;;;;;;5.63;2.88;;;9.60;99.90;;;;;;5037769;28;20094;-89
2023/10/17 03:54:38;;;;;;;5.43;3.20;;;9.60;99.90;;;;;;5006601;28;20049;-89
2023/10/17 03:57:14;;;;;;;4.72;3.10;;;9.60;99.90;;;;;;5033126;28;20033;-89
2023/10/17 03:59:40;;;;;;;4.07;2.92;;;9.60;99.90;;;;;;5060667;28;20177;-89
2023/10/17 04:02:12;;;;;;;5.70;3.20;;;9.60;99.90;;;;;;5074579;28;20041;-89
2023/10/17 04:04:49;;;;;;;4.28;3.17;;;9.50;99.90;;;;;;5060413;28;20020;-87
2023/10/17 04:07:16;;;;;;;6.53;3.10;;;9.50;99.90;;;;;;5057620;28;20025;-87
2023/10/17 04:12:37;;;;;;;5.93;3.28;;;9.50;99.90;;;;;;5049267;28;20175;-90
2023/10/17 04:15:09;;;;;;;3.90;3.30;;;9.50;99.90;;;;;;5026654;28;20473;-89
2023/10/17 04:17:36;;;;;;;;;;;9.50;99.90;;;;;;5056989;28;20017;-90
2023/10/17 04:20:12;;;;;;;6.43;3.10;;;9.60;99.90;;;;;;5054915;28;19905;-88
2023/10/17 04:22:38;;;;;;;6.13;3.20;;;9.60;99.90;;;;;;5006767;28;20018;-89
2023/10/17 04:25:33;;;;;;;5.93;3.55;;;9.60;99.90;;;;;;5063483;28;20115;-89
2023/10/17 04:27:59;;;;;;;6.32;3.55;;;9.50;99.90;;;;;;5059578;28;20021;-89
2023/10/17 04:30:46;;;;;;;5.85;3.17;;;9.50;99.90;;;;;;5040397;28;20112;-91
2023/10/17 04:33:13;;;;;;;4.70;2.90;;;9.50;99.90;;;;;;5044444;28;20492;-88
2023/10/17 04:35:46;;;;;;;4.10;3.17;;;9.50;99.90;;;;;;5039792;28;20536;-89
2023/10/17 04:41:36;;;;;;;3.95;3.03;;;9.50;99.90;;;;;;5051504;28;20029;-88
2023/10/17 04:44:15;;;;;;;4.43;2.90;;;9.50;99.90;;;;;;5065360;28;20036;-89
2023/10/17 04:46:51;;;;;;;4.93;3.00;;;9.50;99.90;;;;;;5031160;28;20033;-88
2023/10/17 04:49:21;;;;;;;3.58;3.15;;;9.50;99.90;;;;;;5020089;28;20017;-88
2023/10/17 04:52:02;;;;;;;4.13;2.90;;;9.50;99.90;;;;;;5043558;28;20021;-87
2023/10/17 04:57:00;;;;;;;4.15;3.22;;;9.50;99.90;;;;;;5016215;28;20052;-87
2023/10/17 06:18:32;;;;;;;15.68;11.57;;;9.40;99.90;;;;;;5041136;28;20132;-89
2023/10/17 06:21:07;;;;;;;11.70;10.23;;;9.40;99.90;;;;;;5038034;28;20033;-88
2023/10/17 06:26:04;;;;;;;13.07;10.50;;;9.40;99.90;;;;;;5071419;28;20395;-89
2023/10/17 06:28:34;;;;;;;16.23;9.80;;;9.30;99.90;;;;;;5022773;28;20032;-89
2023/10/17 06:31:34;;;;;;;12.98;10.00;;;9.30;99.90;;;;;;5001738;28;20071;-88
2023/10/17 06:34:00;;;;;;;16.95;11.07;;;9.30;99.90;;;;;;5049883;28;20025;-89
2023/10/17 06:36:29;;;;;;;12.43;10.05;;;9.30;99.90;;;;;;5029592;28;20040;-89
2023/10/17 06:38:56;;;;;;;12.65;9.63;;;9.30;99.90;;;;;;5037989;28;20410;-90
2023/10/17 06:41:27;;;;;;;13.05;9.18;;;9.30;99.90;;;;;;5037778;28;20561;-89
2023/10/17 06:44:00;;;;;;;13.93;10.13;;;9.30;99.90;;;;;;5055924;28;20053;-88
2023/10/17 06:46:48;;;;;;;12.38;9.00;;;9.30;99.90;;;;;;5022947;28;20124;-89
2023/10/17 06:49:46;;;;;;;11.63;8.55;;;9.20;99.90;;;;;;5006002;28;20022;-88
2023/10/17 06:54:52;;;;;;;10.68;7.68;;;9.20;99.90;;;;;;5056232;28;20380;-90
2023/10/17 06:57:19;;;;;;;11.52;7.60;;;9.20;99.90;;;;;;5008984;28;20036;-89
2023/10/17 06:59:53;;;;;;;9.73;7.68;;;9.20;99.90;;;;;;5055605;28;20008;-89
2023/10/17 07:02:27;;;;;;;11.57;7.38;;;9.20;99.90;;;;;;5073558;28;20017;-89
2023/10/17 07:04:55;;;;;;;10.00;7.07;;;9.30;99.90;;;;;;5061926;28;20009;-87
2023/10/17 07:07:31;;;;;;;8.45;6.85;;;9.20;99.90;;;;;;5047051;28;20479;-89
2023/10/17 07:10:16;;;;;;;10.10;7.72;;;9.20;99.90;;;;;;5039667;28;20048;-89
2023/10/17 07:12:50;;;;;;;8.15;6.55;;;9.20;99.90;;;;;;5040632;28;20080;-88
2023/10/17 07:15:19;;;;;;;9.40;7.10;;;9.20;99.90;;;;;;5038189;28;20049;-89
2023/10/17 07:17:49;;;;;;;9.52;7.18;;;9.30;99.90;;;;;;5054754;28;20025;-88
2023/10/17 07:21:08;;;;;;;8.30;6.50;;;9.30;99.90;;;;;;5018105;28;20026;-89
2023/10/17 07:23:13;;;;;;;6.65;5.68;;;9.20;99.90;;;;;;5049985;28;20052;-89
2023/10/17 07:25:39;;;;;;;8.70;6.57;;;9.20;99.90;;;;;;5042001;28;20036;-89
2023/10/17 07:28:06;;;;;;;8.18;6.10;;;9.30;99.90;;;;;;5056663;28;20028;-88
2023/10/17 07:30:49;;;;;;;7.75;6.40;;;9.30;99.90;;;;;;5040647;28;20086;-88
2023/10/17 07:33:17;;;;;;;8.68;6.70;;;9.30;99.90;;;;;;5074754;28;20135;-88
2023/10/17 07:35:44;;;;;;;11.52;7.43;;;9.30;99.90;;;;;;5039398;28;20491;-89
2023/10/17 07:38:13;;;;;;;8.45;6.95;;;9.30;99.90;;;;;;5054462;28;20560;-89
2023/10/17 07:43:12;;;;;;;9.10;6.35;;;9.40;99.90;;;;;;5061243;28;20026;-89
2023/10/17 07:45:40;;;;;;;8.98;6.50;;;9.40;99.90;;;;;;5036560;28;20033;-90
2023/10/17 07:48:20;;;;;;;9.35;6.32;;;9.40;99.90;;;;;;5036032;28;20044;-89
2023/10/17 07:50:47;;;;;;;13.30;7.57;;;9.30;99.90;;;;;;5036710;28;20075;-88
2023/10/17 07:53:19;;;;;;;11.65;8.02;;;9.40;99.90;;;;;;5036246;28;20064;-89
2023/10/17 07:55:48;;;;;;;11.00;6.88;;;9.40;99.90;;;;;;5036795;28;20044;-88
2023/10/17 07:58:17;;;;;;;9.07;7.05;;;9.40;99.90;;;;;;5038377;28;20116;-88
2023/10/17 08:00:48;;;;;;;9.68;7.03;;;9.40;99.90;;;;;;5036398;28;20043;-89
2023/10/17 08:03:20;;;;;;;8.13;6.40;;;9.50;99.90;;;;;;5036373;28;20174;-89
2023/10/17 08:06:04;;;;;;;14.30;9.48;;;9.50;99.90;;;;;;5036311;28;20032;-89
2023/10/17 08:08:33;;;;;;;11.18;7.88;;;9.50;99.90;;;;;;5035727;28;20469;-89
2023/10/17 08:14:18;;;;;;;10.02;7.55;;;9.50;99.90;;;;;;4993066;28;20048;-90
2023/10/17 08:16:43;;;;;;;9.90;7.47;;;9.60;99.90;;;;;;5025780;28;20032;-88
2023/10/17 08:19:13;;;;;;;9.55;8.20;;;9.70;99.90;;;;;;5036284;28;20032;-89
2023/10/17 08:24:29;;;;;;;11.25;8.30;;;9.70;99.90;;;;;;5053785;28;20182;-89
2023/10/17 08:27:13;;;;;;;10.48;7.57;;;9.80;99.90;;;;;;5023171;28;20025;-88
2023/10/17 08:29:42;;;;;;;12.15;8.18;;;9.80;99.90;;;;;;5067824;28;20029;-88
2023/10/17 08:35:03;;;;;;;12.55;8.48;;;9.90;99.90;;;;;;5072233;28;20117;-89
2023/10/17 08:37:40;;;;;;;10.52;8.35;;;9.90;99.90;;;;;;5034727;28;20034;-88
2023/10/17 08:43:16;;;;;;;12.77;8.38;;;10.10;99.90;;;;;;5000011;28;20038;-89
2023/10/17 08:45:46;;;;;;;10.35;8.70;;;10.20;99.90;;;;;;4996976;28;20122;-87
2023/10/17 08:48:14;;;;;;;12.73;9.10;;;10.20;99.90;;;;;;5022504;28;20041;-89
2023/10/17 08:50:45;;;;;;;13.32;9.18;;;10.30;99.90;;;;;;5016320;28;20044;-88
2023/10/17 08:53:20;;;;;;;14.30;10.48;;;10.30;99.90;;;;;;5033595;28;20175;-89
2023/10/17 08:55:48;;;;;;;13.55;9.82;;;10.40;99.90;;;;;;5041378;28;20548;-89
2023/10/17 08:58:15;;;;;;;10.90;8.75;;;10.40;99.90;;;;;;5039229;28;20029;-88
2023/10/17 09:03:31;;;;;;;13.68;9.00;;;10.50;99.90;;;;;;5074723;28;20035;-88
2023/10/17 09:05:58;;;;;;;12.43;9.52;;;10.60;99.90;;;;;;5036671;28;20114;-91
2023/10/17 09:11:29;;;;;;;13.95;9.07;;;10.70;99.90;;;;;;4996645;28;20112;-89
2023/10/17 09:14:26;;;;;;;14.43;10.00;;;10.70;99.90;;;;;;5054281;28;20140;-89
2023/10/17 09:17:10;;;;;;;14.75;11.10;;;10.80;99.90;;;;;;5059412;28;20025;-89
2023/10/17 09:19:46;;;;;;;12.93;9.65;;;10.80;99.90;;;;;;5070399;28;20033;-89
2023/10/17 09:22:15;;;;;;;12.48;8.57;;;10.80;99.90;;;;;;5056837;28;20104;-90
2023/10/17 09:24:45;;;;;;;11.25;7.82;;;10.90;99.90;;;;;;5039022;28;20024;-88
2023/10/17 09:27:14;;;;;;;9.63;7.82;;;11.00;99.90;;;;;;5023863;28;20025;-88
2023/10/17 09:29:59;;;;;;;12.88;8.88;;;11.10;99.90;;;;;;5038929;28;20440;-89
2023/10/17 09:32:38;;;;;;;10.15;8.18;;;11.20;99.90;;;;;;5039078;28;20029;-89
2023/10/17 09:35:11;;;;;;;12.23;9.18;;;11.20;99.90;;;;;;5038927;28;20021;-89
2023/10/17 09:37:51;;;;;;;9.20;8.20;;;11.30;99.90;;;;;;5023091;28;20102;-89
2023/10/17 09:40:27;;;;;;;10.18;7.60;;;11.20;99.90;;;;;;5038741;28;20013;-89
2023/10/17 09:42:53;;;;;;;11.77;8.15;;;11.30;99.90;;;;;;5039195;28;20049;-89
2023/10/17 09:45:20;;;;;;;9.73;7.30;;;11.40;99.90;;;;;;5035822;28;20036;-89
2023/10/17 09:47:51;;;;;;;11.57;7.45;;;11.40;99.90;;;;;;5059293;28;20025;-89
2023/10/17 09:50:18;;;;;;;10.35;7.47;;;11.50;99.90;;;;;;5063404;28;20047;-90
2023/10/17 09:52:48;;;;;;;8.98;7.28;;;11.50;99.90;;;;;;5039677;28;20033;-90
2023/10/17 09:55:17;;;;;;;11.27;7.68;;;11.60;99.90;;;;;;5038948;28;20416;-88
2023/10/17 09:58:00;;;;;;;9.95;6.47;;;11.70;99.90;;;;;;5039785;28;20029;-89
2023/10/17 10:00:48;;;;;;;8.27;6.68;;;11.70;99.90;;;;;;5039548;28;20025;-88
2023/10/17 10:03:15;;;;;;;10.27;7.07;;;11.80;99.90;;;;;;5063713;28;20080;-87
2023/10/17 10:05:42;;;;;;;9.93;6.65;;;11.80;99.90;;;;;;5061741;28;20120;-89
2023/10/17 10:08:32;;;;;;;8.88;6.57;;;11.90;99.90;;;;;;5046607;28;20005;-89
2023/10/17 10:10:59;;;;;;;9.02;6.40;;;11.90;99.90;;;;;;5063111;28;20005;-89
2023/10/17 10:13:26;;;;;;;6.97;6.00;;;12.00;99.90;;;;;;5062655;28;20005;-90
2023/10/17 10:16:01;;;;;;;7.85;5.68;;;12.10;99.90;;;;;;5079004;28;20021;-89
2023/10/17 10:18:36;;;;;;;7.30;5.38;;;12.10;99.90;;;;;;5067502;28;20040;-89
2023/10/17 10:21:07;;;;;;;8.80;6.22;;;12.20;99.90;;;;;;5058422;28;20066;-89
2023/10/17 10:23:45;;;;;;;8.48;5.90;;;12.30;99.90;;;;;;5055822;28;20021;-91
2023/10/17 10:26:19;;;;;;;6.78;5.20;;;12.30;99.90;;;;;;5057279;28;20368;-89
2023/10/17 10:28:47;;;;;;;8.63;5.32;;;12.40;99.90;;;;;;5047115;28;20028;-89
2023/10/17 10:31:22;;;;;;;7.78;6.20;;;12.50;99.90;;;;;;5037529;28;20067;-89
2023/10/17 10:33:52;;;;;;;9.02;5.57;;;12.50;99.90;;;;;;5055892;28;20039;-89
2023/10/17 10:36:19;;;;;;;8.40;6.10;;;12.50;99.90;;;;;;5037934;28;20036;-91
2023/10/17 10:38:45;;;;;;;8.05;6.00;;;12.50;99.90;;;;;;5021462;28;20090;-89
2023/10/17 10:41:15;;;;;;;8.35;6.40;;;12.50;99.90;;;;;;5038138;28;20029;-92
2023/10/17 10:43:41;;;;;;;7.82;5.75;;;12.50;99.90;;;;;;5055294;28;20013;-90
2023/10/17 10:46:08;;;;;;;6.35;5.13;;;12.60;99.90;;;;;;5021527;28;20060;-89
2023/10/17 10:48:34;;;;;;;7.07;4.93;;;12.60;99.90;;;;;;5037396;28;20025;-89
2023/10/17 10:51:01;;;;;;;6.97;5.18;;;12.70;99.90;;;;;;5037679;28;20024;-89
2023/10/17 10:53:32;;;;;;;8.52;5.13;;;12.80;99.90;;;;;;5037550;28;20025;-89
2023/10/17 10:56:04;;;;;;;6.85;5.03;;;12.80;99.90;;;;;;5039253;28;20103;-90
2023/10/17 10:58:35;;;;;;;6.38;4.95;;;12.80;99.90;;;;;;5037583;28;20036;-88
2023/10/17 11:01:03;;;;;;;9.38;5.80;;;12.90;99.90;;;;;;5037641;28;20429;-90
2023/10/17 11:03:31;;;;;;;6.65;5.35;;;12.90;99.80;;;;;;5037412;28;20481;-90
2023/10/17 11:06:04;;;;;;;6.53;5.03;;;12.90;99.60;;;;;;5037942;28;20035;-88
2023/10/17 11:08:46;;;;;;;7.72;5.32;;;12.90;99.40;;;;;;5054613;28;20530;-88
2023/10/17 11:11:16;;;;;;;7.15;4.70;;;12.80;99.30;;;;;;5037228;28;20041;-89
2023/10/17 11:13:45;;;;;;;8.77;5.70;;;12.90;99.30;;;;;;5018174;28;20026;-89
2023/10/17 11:16:15;;;;;;;5.32;4.43;;;12.90;99.20;;;;;;5041696;28;20031;-87
2023/10/17 11:18:45;;;;;;;8.07;4.97;;;12.90;99.10;;;;;;5054062;28;20112;-89
2023/10/17 11:21:14;;;;;;;7.13;4.38;;;12.90;99.10;;;;;;5049824;28;20028;-89
2023/10/17 11:23:46;;;;;;;6.57;4.13;;;12.90;99.10;;;;;;5050330;28;20012;-89
2023/10/17 11:26:13;;;;;;;5.15;3.63;;;12.90;99.10;;;;;;5043977;28;20033;-90
2023/10/17 11:28:46;;;;;;;6.97;4.40;;;13.00;99.20;;;;;;5020798;28;20032;-90
2023/10/17 11:31:27;;;;;;;6.78;4.30;;;13.00;99.20;;;;;;5021811;28;20029;-89
2023/10/17 11:34:02;;;;;;;6.22;3.70;;;13.10;99.00;;;;;;5037304;28;20028;-89
2023/10/17 11:36:37;;;;;;;7.35;4.38;;;13.00;99.00;;;;;;5025346;28;20031;-90
2023/10/17 11:39:05;;;;;;;6.88;4.15;;;13.00;98.70;;;;;;5026817;28;20085;-89
2023/10/17 11:41:39;;;;;;;6.43;4.68;;;13.00;98.60;;;;;;5050888;28;20023;-89
2023/10/17 11:44:06;;;;;;;7.55;4.05;;;13.00;98.30;;;;;;5060545;28;20005;-89
2023/10/17 11:46:37;;;;;;;5.38;3.88;;;13.00;98.40;;;;;;5060091;28;20039;-89
2023/10/17 11:49:28;;;;;;;;;;;13.00;98.40;;;;;;5041658;28;20449;-90
2023/10/17 11:52:04;;;;;;;6.63;4.18;;;13.10;98.60;;;;;;5017573;28;19909;-90
2023/10/17 11:54:31;;;;;;;6.07;4.50;;;13.10;98.50;;;;;;5017456;28;20056;-90
2023/10/17 11:57:12;;;;;;;4.85;4.15;;;13.10;98.40;;;;;;5034012;28;20056;-89
2023/10/17 11:59:38;;;;;;;6.97;4.15;;;13.10;98.30;;;;;;5053274;28;20470;-89
2023/10/17 12:02:04;;;;;;;7.85;3.60;;;13.10;98.00;;;;;;5036752;28;20028;-89
2023/10/17 12:04:30;;;;;;;4.63;3.30;;;13.20;98.20;;;;;;5017902;28;20037;-89
2023/10/17 12:06:56;;;;;;;4.97;3.60;;;13.20;98.20;;;;;;5070398;28;20055;-89
2023/10/17 12:09:24;;;;;;;4.43;3.30;;;13.30;97.60;;;;;;5070749;28;20025;-89
2023/10/17 12:11:52;;;;;;;4.55;3.55;;;13.30;97.60;;;;;;5020390;28;20465;-89
2023/10/17 12:14:21;;;;;;;5.50;3.13;;;13.20;97.60;;;;;;5054102;28;20079;-90
2023/10/17 12:16:48;;;;;;;5.75;2.65;;;13.30;97.80;;;;;;5036388;28;20029;-89
2023/10/17 12:19:17;;;;;;;6.05;3.58;;;13.30;97.80;;;;;;5054263;28;20025;-89
2023/10/17 12:21:49;;;;;;;3.97;2.72;;;13.30;97.50;;;;;;5019737;28;20029;-90
2023/10/17 12:24:24;;;;;;;5.35;2.60;;;13.30;97.50;;;;;;5039137;28;20024;-90
2023/10/17 12:26:53;;;;;;;5.75;3.15;;;13.30;97.40;;;;;;5052899;28;20064;-89
2023/10/17 12:29:26;;;;;;;4.10;3.10;;;13.40;97.20;;;;;;5023853;28;20021;-90
2023/10/17 12:31:54;;;;;;;5.20;2.90;;;13.50;97.30;;;;;;5024883;28;20025;-90
2023/10/17 12:34:22;;;;;;;2.78;2.22;;;13.50;97.20;;;;;;5047701;28;20029;-88
2023/10/17 12:36:48;;;;;;;4.22;2.60;;;13.50;97.10;;;;;;5011213;28;20025;-89
2023/10/17 12:39:17;;;;;;;4.00;2.70;;;13.50;97.10;;;;;;5037998;28;20044;-89
2023/10/17 12:41:45;;;;;;;3.90;2.25;;;13.50;96.80;;;;;;5030789;28;20048;-89
2023/10/17 12:44:12;;;;;;;3.28;2.17;;;13.50;96.80;;;;;;5039898;28;20029;-90
2023/10/17 12:46:38;;;;;;;3.03;2.13;;;13.40;97.00;;;;;;5039941;28;20063;-89
2023/10/17 12:49:06;;;;;;;4.97;2.97;;;13.50;97.10;;;;;;5039905;28;20021;-91
2023/10/17 12:51:33;;;;;;;5.05;3.22;;;13.50;96.90;;;;;;5030105;28;20030;-89
2023/10/17 12:53:58;;;;;;;3.63;2.22;;;13.50;96.70;;;;;;5020220;28;20028;-90
2023/10/17 12:56:27;;;;;;;3.00;1.92;;;13.50;96.50;;;;;;4987644;28;20050;-88
2023/10/17 12:58:52;;;;;;;3.88;2.30;;;13.50;96.70;;;;;;5032080;28;20025;-88
2023/10/17 13:01:24;;;;;;;4.38;2.47;;;13.60;96.70;;;;;;5023969;28;20037;-89
2023/10/17 13:03:53;;;;;;;2.83;2.00;;;13.70;96.70;;;;;;5040048;28;20029;-90
2023/10/17 13:06:21;;;;;;;3.15;2.40;;;13.70;96.70;;;;;;5024560;28;20059;-88
2023/10/17 13:08:56;;;;;;;3.65;2.42;;;13.70;96.70;;;;;;5040117;28;20036;-89
2023/10/17 13:11:25;;;;;;;5.45;2.20;;;13.70;96.60;;;;;;5025052;28;20032;-90
2023/10/17 13:13:54;;;;;;;3.40;2.28;;;13.80;96.60;;;;;;5040242;28;20025;-90
2023/10/17 13:16:23;;;;;;;3.38;2.38;;;13.80;96.40;;;;;;5043988;28;20028;-89
2023/10/17 13:18:50;;;;;;;4.50;2.00;;;13.70;96.20;;;;;;5080529;28;20013;-90
2023/10/17 13:21:19;;;;;;;4.55;2.22;;;13.70;96.30;;;;;;5063554;28;20009;-89
2023/10/17 13:23:44;;;;;;;3.85;2.13;;;13.80;96.30;;;;;;5071444;28;20044;-90
2023/10/17 13:26:22;;;;;;;3.95;2.78;;;13.80;96.30;;;;;;5061828;28;20029;-90
2023/10/17 13:28:47;;;;;;;5.43;2.70;;;13.80;96.20;;;;;;5046382;28;20025;-88
2023/10/17 13:31:15;;;;;;;4.13;2.13;;;13.80;96.20;;;;;;5049843;28;20028;-89
2023/10/17 13:33:50;;;;;;;3.45;2.30;;;13.80;96.10;;;;;;5049591;28;20028;-89
2023/10/17 13:36:16;;;;;;;4.28;2.38;;;13.80;96.10;;;;;;5039510;28;20021;-89
2023/10/17 13:38:43;;;;;;;3.13;2.38;;;13.70;95.90;;;;;;5038938;28;20556;-89
2023/10/17 13:41:09;;;;;;;4.32;2.05;;;13.70;96.00;;;;;;5039112;28;20016;-90
2023/10/17 13:43:36;;;;;;;4.22;2.10;;;13.60;96.00;;;;;;5039311;28;20032;-88
2023/10/17 13:46:16;;;;;;;2.63;1.75;;;13.60;96.00;;;;;;5039539;28;20021;-89
2023/10/17 13:48:48;;;;;;;2.88;1.50;;;13.70;96.10;;;;;;5039023;28;20067;-90
2023/10/17 13:51:16;;;;;;;2.55;1.80;;;13.70;96.10;;;;;;5057000;28;20103;-89
2023/10/17 13:53:44;;;;;;;3.63;2.00;;;13.70;95.90;;;;;;5033050;28;20079;-90
2023/10/17 13:56:27;;;;;;;3.85;2.03;;;13.70;95.80;;;;;;5018608;28;20060;-89
2023/10/17 13:58:56;;;;;;;3.28;2.20;;;13.70;95.90;;;;;;5036587;28;20097;-88
2023/10/17 14:01:27;;;;;;;2.80;2.10;;;13.70;95.80;;;;;;5035384;28;20060;-91
2023/10/17 14:03:55;;;;;;;3.85;2.33;;;13.70;95.80;;;;;;5036290;28;20410;-88
2023/10/17 14:06:27;;;;;;;5.07;2.58;;;13.70;95.40;;;;;;5018875;28;20033;-90
2023/10/17 14:08:59;;;;;;;4.30;2.30;;;13.70;95.40;;;;;;5031582;28;20117;-89
2023/10/17 14:11:25;;;;;;;2.75;1.77;;;13.80;95.40;;;;;;5035457;28;20076;-91
2023/10/17 14:13:54;;;;;;;3.17;2.03;;;13.90;95.50;;;;;;5035287;28;20018;-88
2023/10/17 14:16:23;;;;;;;4.28;2.28;;;13.90;95.40;;;;;;5018401;28;20064;-89
2023/10/17 14:21:36;;;;;;;2.40;2.00;;;13.90;95.40;;;;;;4993231;28;20114;-90
2023/10/17 14:24:27;;;;;;;2.58;2.28;;;13.90;95.40;;;;;;5015181;28;20077;-88
2023/10/17 14:26:53;;;;;;;3.13;2.30;;;13.80;95.30;;;;;;5019941;28;20029;-88
2023/10/17 14:29:22;;;;;;;4.85;2.10;;;13.90;95.30;;;;;;5036115;28;20021;-90
2023/10/17 14:31:48;;;;;;;3.47;2.35;;;14.00;95.50;;;;;;5034918;28;20084;-89
2023/10/17 14:34:13;;;;;;;2.78;2.20;;;14.10;95.50;;;;;;5018250;28;20031;-89
2023/10/17 14:36:49;;;;;;;4.15;2.10;;;14.20;95.40;;;;;;5031480;28;20044;-91
2023/10/17 14:39:20;;;;;;;4.22;2.08;;;14.30;95.40;;;;;;5034847;28;20500;-89
2023/10/17 14:41:47;;;;;;;4.93;2.17;;;14.30;95.10;;;;;;5029296;28;20032;-90
2023/10/17 14:44:12;;;;;;;3.47;2.10;;;14.30;95.00;;;;;;5034699;28;20096;-90
2023/10/17 14:46:38;;;;;;;3.80;2.20;;;14.20;94.90;;;;;;5028964;28;20025;-89
2023/10/17 14:49:05;;;;;;;3.83;2.20;;;14.10;94.70;;;;;;5002432;28;20045;-90
2023/10/17 14:51:31;;;;;;;3.22;2.28;;;14.10;94.80;;;;;;5040787;28;20025;-89
2023/10/17 14:53:56;;;;;;;2.05;1.83;;;14.00;94.90;;;;;;5040026;28;20060;-90
2023/10/17 14:56:22;;;;;;;4.43;2.30;;;14.10;95.00;;;;;;5048772;28;20064;-90
2023/10/17 14:58:51;;;;;;;2.53;2.00;;;14.10;94.90;;;;;;5053456;28;20005;-90
2023/10/17 15:01:16;;;;;;;4.90;2.50;;;14.20;94.90;;;;;;5055149;28;20032;-89
2023/10/17 15:03:45;;;;;;;3.67;2.28;;;14.10;94.60;;;;;;5052862;28;20045;-89
2023/10/17 15:06:11;;;;;;;3.53;2.60;;;14.10;94.70;;;;;;5040458;28;20061;-89
2023/10/17 15:08:37;;;;;;;3.83;2.42;;;13.90;94.70;;;;;;4999327;28;20056;-89
2023/10/17 15:11:06;;;;;;;4.50;2.47;;;13.80;94.60;;;;;;5015379;28;20053;-91
2023/10/17 15:13:35;;;;;;;3.78;2.17;;;13.80;94.80;;;;;;5015003;28;20033;-90
2023/10/17 15:16:04;;;;;;;2.75;1.70;;;13.70;94.80;;;;;;5020309;28;20036;-89
2023/10/17 15:18:34;;;;;;;4.72;2.10;;;13.70;94.90;;;;;;5035118;28;20055;-89
2023/10/17 15:21:05;;;;;;;4.57;2.10;;;13.70;94.80;;;;;;5033721;28;20025;-89